sensor_id;sensor_type;location;lat;lon;timestamp;pressure;altitude;pressure_sealevel;temperature;humidity
23223;BME280;11780;13.904;100.620;2023-04-07T00:01:19;100999.09;;;32.93;67.47
23223;BME280;11780;13.904;100.620;2023-04-07T00:03:50;101000.38;;;32.95;67.50
23223;BME280;11780;13.904;100.620;2023-04-07T00:06:21;101003.16;;;32.95;67.40
23223;BME280;11780;13.904;100.620;2023-04-07T00:08:51;101017.00;;;32.95;67.47
23223;BME280;11780;13.904;100.620;2023-04-07T00:11:21;101017.31;;;32.94;67.63
23223;BME280;11780;13.904;100.620;2023-04-07T00:13:52;101014.25;;;32.95;67.54
23223;BME280;11780;13.904;100.620;2023-04-07T00:16:23;101019.78;;;32.95;67.53
23223;BME280;11780;13.904;100.620;2023-04-07T00:18:53;101027.25;;;32.95;67.46
23223;BME280;11780;13.904;100.620;2023-04-07T00:21:32;101023.69;;;32.94;67.46
23223;BME280;11780;13.904;100.620;2023-04-07T00:24:08;101025.63;;;32.94;67.75
23223;BME280;11780;13.904;100.620;2023-04-07T00:26:42;101027.59;;;32.93;67.75
23223;BME280;11780;13.904;100.620;2023-04-07T00:29:40;101029.25;;;32.94;67.65
23223;BME280;11780;13.904;100.620;2023-04-07T00:32:12;101030.88;;;32.95;67.79
23223;BME280;11780;13.904;100.620;2023-04-07T00:34:42;101046.66;;;32.95;67.55
23223;BME280;11780;13.904;100.620;2023-04-07T00:37:13;101057.75;;;32.95;67.46
23223;BME280;11780;13.904;100.620;2023-04-07T00:39:44;101073.72;;;32.98;67.54
23223;BME280;11780;13.904;100.620;2023-04-07T00:42:15;101077.31;;;32.99;67.39
23223;BME280;11780;13.904;100.620;2023-04-07T00:44:46;101086.44;;;32.99;67.52
23223;BME280;11780;13.904;100.620;2023-04-07T00:47:16;101089.19;;;32.99;67.41
23223;BME280;11780;13.904;100.620;2023-04-07T00:49:47;101099.16;;;33.00;67.42
23223;BME280;11780;13.904;100.620;2023-04-07T00:52:18;101118.53;;;33.00;67.19
23223;BME280;11780;13.904;100.620;2023-04-07T00:54:57;101124.56;;;33.02;67.17
23223;BME280;11780;13.904;100.620;2023-04-07T00:57:28;101130.13;;;33.02;67.14
23223;BME280;11780;13.904;100.620;2023-04-07T00:59:58;101126.06;;;33.00;67.07
23223;BME280;11780;13.904;100.620;2023-04-07T01:02:39;101128.97;;;33.03;66.95
23223;BME280;11780;13.904;100.620;2023-04-07T01:05:15;101135.66;;;33.02;66.97
23223;BME280;11780;13.904;100.620;2023-04-07T01:07:57;101135.66;;;33.02;66.70
23223;BME280;11780;13.904;100.620;2023-04-07T01:16:04;101169.41;;;33.04;66.55
23223;BME280;11780;13.904;100.620;2023-04-07T01:18:45;101172.47;;;33.03;66.25
23223;BME280;11780;13.904;100.620;2023-04-07T01:21:18;101184.88;;;33.05;66.38
23223;BME280;11780;13.904;100.620;2023-04-07T01:26:37;101183.25;;;33.04;66.38
23223;BME280;11780;13.904;100.620;2023-04-07T01:29:33;101176.41;;;33.02;66.56
23223;BME280;11780;13.904;100.620;2023-04-07T01:32:09;101174.44;;;33.02;66.55
23223;BME280;11780;13.904;100.620;2023-04-07T01:34:41;101201.19;;;33.07;66.38
23223;BME280;11780;13.904;100.620;2023-04-07T01:37:12;101186.03;;;33.04;66.35
23223;BME280;11780;13.904;100.620;2023-04-07T01:39:43;101178.84;;;33.03;66.45
23223;BME280;11780;13.904;100.620;2023-04-07T01:42:14;101184.41;;;33.03;66.37
23223;BME280;11780;13.904;100.620;2023-04-07T01:44:46;101191.56;;;33.04;66.47
23223;BME280;11780;13.904;100.620;2023-04-07T01:47:18;101187.16;;;33.03;66.53
23223;BME280;11780;13.904;100.620;2023-04-07T01:49:49;101188.47;;;33.06;66.49
23223;BME280;11780;13.904;100.620;2023-04-07T01:52:20;101192.06;;;33.06;66.29
23223;BME280;11780;13.904;100.620;2023-04-07T01:54:53;101188.16;;;33.07;65.94
23223;BME280;11780;13.904;100.620;2023-04-07T01:57:25;101197.25;;;33.08;65.93
23223;BME280;11780;13.904;100.620;2023-04-07T02:00:00;101193.19;;;33.05;65.76
23223;BME280;11780;13.904;100.620;2023-04-07T02:02:44;101211.94;;;33.08;65.77
23223;BME280;11780;13.904;100.620;2023-04-07T02:05:18;101216.31;;;33.09;65.95
23223;BME280;11780;13.904;100.620;2023-04-07T02:07:57;101217.50;;;33.08;66.07
23223;BME280;11780;13.904;100.620;2023-04-07T02:10:31;101232.16;;;33.09;65.62
23223;BME280;11780;13.904;100.620;2023-04-07T02:13:06;101236.91;;;33.08;65.63
23223;BME280;11780;13.904;100.620;2023-04-07T02:15:38;101232.94;;;33.09;65.63
23223;BME280;11780;13.904;100.620;2023-04-07T02:18:12;101244.03;;;33.09;65.42
23223;BME280;11780;13.904;100.620;2023-04-07T02:20:44;101238.50;;;33.09;65.42
23223;BME280;11780;13.904;100.620;2023-04-07T02:23:15;101238.84;;;33.08;65.42
23223;BME280;11780;13.904;100.620;2023-04-07T02:25:46;101234.13;;;33.08;65.42
23223;BME280;11780;13.904;100.620;2023-04-07T02:28:16;101225.97;;;33.03;65.47
23223;BME280;11780;13.904;100.620;2023-04-07T02:30:46;101229.22;;;33.05;65.58
23223;BME280;11780;13.904;100.620;2023-04-07T02:33:16;101239.19;;;33.06;65.31
23223;BME280;11780;13.904;100.620;2023-04-07T02:35:46;101234.78;;;33.05;65.59
23223;BME280;11780;13.904;100.620;2023-04-07T02:38:17;101233.63;;;33.06;65.61
23223;BME280;11780;13.904;100.620;2023-04-07T02:40:47;101243.59;;;33.07;65.88
23223;BME280;11780;13.904;100.620;2023-04-07T02:43:18;101236.72;;;33.05;65.56
23223;BME280;11780;13.904;100.620;2023-04-07T02:45:50;101240.81;;;33.07;65.45
23223;BME280;11780;13.904;100.620;2023-04-07T02:48:22;101251.06;;;33.07;65.41
23223;BME280;11780;13.904;100.620;2023-04-07T02:50:52;101257.44;;;33.07;65.56
23223;BME280;11780;13.904;100.620;2023-04-07T02:53:23;101249.94;;;33.08;65.44
23223;BME280;11780;13.904;100.620;2023-04-07T02:55:53;101261.16;;;33.12;65.24
23223;BME280;11780;13.904;100.620;2023-04-07T02:58:23;101269.00;;;33.09;65.45
23223;BME280;11780;13.904;100.620;2023-04-07T03:00:54;101277.31;;;33.09;65.63
23223;BME280;11780;13.904;100.620;2023-04-07T03:03:27;101270.97;;;33.09;65.77
23223;BME280;11780;13.904;100.620;2023-04-07T03:06:10;101267.84;;;33.10;65.52
23223;BME280;11780;13.904;100.620;2023-04-07T03:09:00;101277.31;;;33.09;65.64
23223;BME280;11780;13.904;100.620;2023-04-07T03:11:30;101281.25;;;33.08;65.64
23223;BME280;11780;13.904;100.620;2023-04-07T03:14:00;101281.25;;;33.08;65.78
23223;BME280;11780;13.904;100.620;2023-04-07T03:16:31;101288.38;;;33.09;65.69
23223;BME280;11780;13.904;100.620;2023-04-07T03:19:11;101284.00;;;33.08;65.75
23223;BME280;11780;13.904;100.620;2023-04-07T03:21:49;101285.16;;;33.07;66.04
23223;BME280;11780;13.904;100.620;2023-04-07T03:24:20;101273.22;;;33.07;66.47
23223;BME280;11780;13.904;100.620;2023-04-07T03:26:50;101270.16;;;33.08;65.77
23223;BME280;11780;13.904;100.620;2023-04-07T03:29:34;101259.06;;;33.08;65.99
23223;BME280;11780;13.904;100.620;2023-04-07T03:32:07;101260.66;;;33.09;66.17
23223;BME280;11780;13.904;100.620;2023-04-07T03:34:37;101270.16;;;33.08;66.63
23223;BME280;11780;13.904;100.620;2023-04-07T03:37:08;101283.34;;;33.12;66.71
23223;BME280;11780;13.904;100.620;2023-04-07T03:39:38;101277.31;;;33.09;67.15
23223;BME280;11780;13.904;100.620;2023-04-07T03:42:32;101284.00;;;33.08;66.99
23223;BME280;11780;13.904;100.620;2023-04-07T03:45:06;101287.59;;;33.09;67.11
23223;BME280;11780;13.904;100.620;2023-04-07T03:47:41;101277.31;;;33.09;67.17
23223;BME280;11780;13.904;100.620;2023-04-07T03:50:11;101263.78;;;33.08;67.12
23223;BME280;11780;13.904;100.620;2023-04-07T03:53:07;101276.34;;;33.05;66.95
23223;BME280;11780;13.904;100.620;2023-04-07T03:55:38;101263.63;;;33.04;66.88
23223;BME280;11780;13.904;100.620;2023-04-07T03:58:17;101265.25;;;33.05;66.83
23223;BME280;11780;13.904;100.620;2023-04-07T04:00:48;101277.78;;;33.03;66.74
23223;BME280;11780;13.904;100.620;2023-04-07T04:03:19;101281.72;;;33.02;66.94
23223;BME280;11780;13.904;100.620;2023-04-07T04:06:04;101277.34;;;33.01;66.75
23223;BME280;11780;13.904;100.620;2023-04-07T04:08:34;101276.50;;;33.00;66.51
23223;BME280;11780;13.904;100.620;2023-04-07T04:11:04;101277.63;;;32.99;66.73
23223;BME280;11780;13.904;100.620;2023-04-07T04:13:43;101279.59;;;32.99;66.83
23223;BME280;11780;13.904;100.620;2023-04-07T04:16:13;101292.31;;;33.00;66.70
23223;BME280;11780;13.904;100.620;2023-04-07T04:18:46;101290.19;;;32.97;66.66
23223;BME280;11780;13.904;100.620;2023-04-07T04:21:16;101289.84;;;32.98;66.74
23223;BME280;11780;13.904;100.620;2023-04-07T04:23:47;101285.47;;;32.97;66.58
23223;BME280;11780;13.904;100.620;2023-04-07T04:26:17;101291.00;;;32.97;66.71
23223;BME280;11780;13.904;100.620;2023-04-07T04:28:47;101293.63;;;32.93;66.63
23223;BME280;11780;13.904;100.620;2023-04-07T04:31:20;101293.78;;;32.97;66.90
23223;BME280;11780;13.904;100.620;2023-04-07T04:33:50;101285.78;;;32.95;66.55
23223;BME280;11780;13.904;100.620;2023-04-07T04:36:23;101284.16;;;32.94;66.52
23223;BME280;11780;13.904;100.620;2023-04-07T04:38:58;101271.94;;;32.95;66.38
23223;BME280;11780;13.904;100.620;2023-04-07T04:41:28;101263.28;;;32.97;66.24
23223;BME280;11780;13.904;100.620;2023-04-07T04:43:59;101243.41;;;32.95;66.14
23223;BME280;11780;13.904;100.620;2023-04-07T04:46:31;101240.16;;;32.93;66.06
23223;BME280;11780;13.904;100.620;2023-04-07T04:49:01;101236.56;;;32.92;66.12
23223;BME280;11780;13.904;100.620;2023-04-07T04:51:33;101235.44;;;32.93;66.04
23223;BME280;11780;13.904;100.620;2023-04-07T04:54:11;101222.38;;;32.94;66.25
23223;BME280;11780;13.904;100.620;2023-04-07T04:56:42;101223.53;;;32.93;66.11
23223;BME280;11780;13.904;100.620;2023-04-07T04:59:12;101215.22;;;32.93;66.17
23223;BME280;11780;13.904;100.620;2023-04-07T05:01:53;101218.00;;;32.93;66.44
23223;BME280;11780;13.904;100.620;2023-04-07T05:04:23;101217.50;;;32.91;66.17
23223;BME280;11780;13.904;100.620;2023-04-07T05:07:01;101220.78;;;32.93;66.03
23223;BME280;11780;13.904;100.620;2023-04-07T05:09:31;101214.72;;;32.91;65.95
23223;BME280;11780;13.904;100.620;2023-04-07T05:12:02;101209.19;;;32.91;65.76
23223;BME280;11780;13.904;100.620;2023-04-07T05:14:37;101198.75;;;32.88;65.71
23223;BME280;11780;13.904;100.620;2023-04-07T05:17:08;101193.22;;;32.88;65.53
23223;BME280;11780;13.904;100.620;2023-04-07T05:19:38;101186.84;;;32.87;65.43
23223;BME280;11780;13.904;100.620;2023-04-07T05:22:22;101176.59;;;32.88;65.25
23223;BME280;11780;13.904;100.620;2023-04-07T05:24:52;101169.41;;;32.87;65.40
23223;BME280;11780;13.904;100.620;2023-04-07T05:27:22;101167.44;;;32.87;65.30
23223;BME280;11780;13.904;100.620;2023-04-07T05:29:56;101166.16;;;32.85;65.21
23223;BME280;11780;13.904;100.620;2023-04-07T05:32:31;101157.84;;;32.85;65.34
23223;BME280;11780;13.904;100.620;2023-04-07T05:35:09;101156.38;;;32.87;65.14
23223;BME280;11780;13.904;100.620;2023-04-07T05:37:47;101149.19;;;32.86;65.18
23223;BME280;11780;13.904;100.620;2023-04-07T05:40:17;101142.84;;;32.86;64.92
23223;BME280;11780;13.904;100.620;2023-04-07T05:42:49;101137.66;;;32.84;64.76
23223;BME280;11780;13.904;100.620;2023-04-07T05:45:20;101134.06;;;32.84;64.64
23223;BME280;11780;13.904;100.620;2023-04-07T05:47:50;101129.66;;;32.83;64.44
23223;BME280;11780;13.904;100.620;2023-04-07T05:50:26;101111.88;;;32.84;64.34
23223;BME280;11780;13.904;100.620;2023-04-07T05:53:00;101101.63;;;32.84;64.11
23223;BME280;11780;13.904;100.620;2023-04-07T05:55:30;101091.69;;;32.83;64.17
23223;BME280;11780;13.904;100.620;2023-04-07T05:58:01;101087.78;;;32.84;63.95
23223;BME280;11780;13.904;100.620;2023-04-07T06:00:32;101077.84;;;32.83;63.93
23223;BME280;11780;13.904;100.620;2023-04-07T06:03:11;101070.81;;;32.86;63.91
23223;BME280;11780;13.904;100.620;2023-04-07T06:05:53;101070.03;;;32.85;63.82
23223;BME280;11780;13.904;100.620;2023-04-07T06:08:25;101058.94;;;32.85;63.60
23223;BME280;11780;13.904;100.620;2023-04-07T06:10:56;101070.81;;;32.86;63.52
23223;BME280;11780;13.904;100.620;2023-04-07T06:13:26;101060.22;;;32.88;63.16
23223;BME280;11780;13.904;100.620;2023-04-07T06:15:56;101053.84;;;32.87;63.01
23223;BME280;11780;13.904;100.620;2023-04-07T06:18:26;101051.44;;;32.86;63.05
23223;BME280;11780;13.904;100.620;2023-04-07T06:20:58;101046.69;;;32.86;62.98
23223;BME280;11780;13.904;100.620;2023-04-07T06:23:28;101041.16;;;32.86;62.55
23223;BME280;11780;13.904;100.620;2023-04-07T06:25:58;101039.19;;;32.87;62.54
23223;BME280;11780;13.904;100.620;2023-04-07T06:28:29;101040.50;;;32.89;62.47
23223;BME280;11780;13.904;100.620;2023-04-07T06:30:59;101028.59;;;32.89;62.50
23223;BME280;11780;13.904;100.620;2023-04-07T06:33:30;101031.88;;;32.91;62.23
23223;BME280;11780;13.904;100.620;2023-04-07T06:36:00;101027.47;;;32.90;62.30
23223;BME280;11780;13.904;100.620;2023-04-07T06:38:31;101019.16;;;32.90;62.21
23223;BME280;11780;13.904;100.620;2023-04-07T06:41:01;101011.34;;;32.92;62.43
23223;BME280;11780;13.904;100.620;2023-04-07T06:43:32;101004.66;;;32.93;62.19
23223;BME280;11780;13.904;100.620;2023-04-07T06:46:03;100995.50;;;32.92;62.25
23223;BME280;11780;13.904;100.620;2023-04-07T06:48:34;100999.91;;;32.93;62.32
23223;BME280;11780;13.904;100.620;2023-04-07T06:51:04;100999.91;;;32.93;62.11
23223;BME280;11780;13.904;100.620;2023-04-07T06:53:34;100995.66;;;32.96;61.59
23223;BME280;11780;13.904;100.620;2023-04-07T06:56:09;100989.31;;;32.95;60.75
23223;BME280;11780;13.904;100.620;2023-04-07T06:58:40;100985.88;;;32.99;60.63
23223;BME280;11780;13.904;100.620;2023-04-07T07:01:10;100981.13;;;32.99;61.32
23223;BME280;11780;13.904;100.620;2023-04-07T07:03:40;100977.56;;;32.99;61.40
23223;BME280;11780;13.904;100.620;2023-04-07T07:06:11;100968.91;;;33.00;61.52
23223;BME280;11780;13.904;100.620;2023-04-07T07:08:42;100972.50;;;33.01;61.18
23223;BME280;11780;13.904;100.620;2023-04-07T07:11:12;100966.63;;;33.02;60.95
23223;BME280;11780;13.904;100.620;2023-04-07T07:13:42;100950.78;;;33.03;60.96
23223;BME280;11780;13.904;100.620;2023-04-07T07:16:14;100953.41;;;32.99;61.08
23223;BME280;11780;13.904;100.620;2023-04-07T07:18:44;100942.16;;;33.04;60.20
23223;BME280;11780;13.904;100.620;2023-04-07T07:21:15;100942.94;;;33.05;59.76
23223;BME280;11780;13.904;100.620;2023-04-07T07:23:45;100949.16;;;33.02;59.04
23223;BME280;11780;13.904;100.620;2023-04-07T07:26:16;100933.38;;;33.02;59.32
23223;BME280;11780;13.904;100.620;2023-04-07T07:28:46;100933.84;;;33.04;59.47
23223;BME280;11780;13.904;100.620;2023-04-07T07:31:16;100932.22;;;33.03;59.53
23223;BME280;11780;13.904;100.620;2023-04-07T07:33:47;100921.13;;;33.03;59.51
23223;BME280;11780;13.904;100.620;2023-04-07T07:36:20;100906.13;;;33.04;59.35
23223;BME280;11780;13.904;100.620;2023-04-07T07:38:50;100903.38;;;33.04;59.34
23223;BME280;11780;13.904;100.620;2023-04-07T07:41:20;100892.28;;;33.04;59.16
23223;BME280;11780;13.904;100.620;2023-04-07T07:43:51;100887.22;;;33.06;59.02
23223;BME280;11780;13.904;100.620;2023-04-07T07:46:21;100892.28;;;33.04;59.22
23223;BME280;11780;13.904;100.620;2023-04-07T07:48:54;100885.25;;;33.07;59.17
23223;BME280;11780;13.904;100.620;2023-04-07T07:51:25;100877.75;;;33.07;59.26
23223;BME280;11780;13.904;100.620;2023-04-07T07:53:56;100868.28;;;33.08;59.30
23223;BME280;11780;13.904;100.620;2023-04-07T07:56:27;100859.97;;;33.08;59.72
23223;BME280;11780;13.904;100.620;2023-04-07T07:58:57;100871.50;;;33.10;59.19
23223;BME280;11780;13.904;100.620;2023-04-07T08:01:27;100859.16;;;33.08;58.91
23223;BME280;11780;13.904;100.620;2023-04-07T08:03:58;100853.59;;;33.08;58.97
23223;BME280;11780;13.904;100.620;2023-04-07T08:06:28;100846.13;;;33.08;59.27
23223;BME280;11780;13.904;100.620;2023-04-07T08:09:00;100843.34;;;33.08;59.39
23223;BME280;11780;13.904;100.620;2023-04-07T08:11:30;100825.09;;;33.07;59.49
23223;BME280;11780;13.904;100.620;2023-04-07T08:14:00;100823.94;;;33.08;59.57
23223;BME280;11780;13.904;100.620;2023-04-07T08:16:30;100818.06;;;33.10;59.97
23223;BME280;11780;13.904;100.620;2023-04-07T08:19:00;100817.22;;;33.09;59.95
23223;BME280;11780;13.904;100.620;2023-04-07T08:21:31;100806.50;;;33.08;59.78
23223;BME280;11780;13.904;100.620;2023-04-07T08:24:01;100810.09;;;33.08;59.95
23223;BME280;11780;13.904;100.620;2023-04-07T08:26:32;100800.16;;;33.07;60.14
23223;BME280;11780;13.904;100.620;2023-04-07T08:29:02;100806.16;;;33.09;60.34
23223;BME280;11780;13.904;100.620;2023-04-07T08:31:32;100795.06;;;33.09;60.38
23223;BME280;11780;13.904;100.620;2023-04-07T08:34:03;100789.53;;;33.09;60.38
23223;BME280;11780;13.904;100.620;2023-04-07T08:36:33;100787.22;;;33.12;60.64
23223;BME280;11780;13.904;100.620;2023-04-07T08:39:03;100782.03;;;33.10;60.57
23223;BME280;11780;13.904;100.620;2023-04-07T08:41:39;100783.97;;;33.09;60.41
23223;BME280;11780;13.904;100.620;2023-04-07T08:44:10;100787.22;;;33.12;60.57
23223;BME280;11780;13.904;100.620;2023-04-07T08:46:42;100777.75;;;33.13;60.51
23223;BME280;11780;13.904;100.620;2023-04-07T08:49:15;100774.50;;;33.10;60.53
23223;BME280;11780;13.904;100.620;2023-04-07T08:51:47;100773.38;;;33.12;60.60
23223;BME280;11780;13.904;100.620;2023-04-07T08:54:17;100772.56;;;33.11;60.71
23223;BME280;11780;13.904;100.620;2023-04-07T08:56:50;100773.38;;;33.12;60.72
23223;BME280;11780;13.904;100.620;2023-04-07T08:59:21;100769.94;;;33.15;60.79
23223;BME280;11780;13.904;100.620;2023-04-07T09:01:55;100762.28;;;33.12;60.98
23223;BME280;11780;13.904;100.620;2023-04-07T09:04:26;100753.97;;;33.12;61.10
23223;BME280;11780;13.904;100.620;2023-04-07T09:06:56;100752.34;;;33.10;60.94
23223;BME280;11780;13.904;100.620;2023-04-07T09:09:26;100756.25;;;33.09;61.00
23223;BME280;11780;13.904;100.620;2023-04-07T09:11:57;100745.34;;;33.13;61.03
23223;BME280;11780;13.904;100.620;2023-04-07T09:14:27;100750.06;;;33.13;60.68
23223;BME280;11780;13.904;100.620;2023-04-07T09:16:58;100751.19;;;33.12;60.51
23223;BME280;11780;13.904;100.620;2023-04-07T09:19:28;100752.16;;;33.16;60.77
23223;BME280;11780;13.904;100.620;2023-04-07T09:21:59;100758.84;;;33.15;60.84
23223;BME280;11780;13.904;100.620;2023-04-07T09:24:30;100773.84;;;33.14;60.67
23223;BME280;11780;13.904;100.620;2023-04-07T09:27:17;100769.13;;;33.14;60.47
23223;BME280;11780;13.904;100.620;2023-04-07T09:29:48;100772.69;;;33.15;60.55
23223;BME280;11780;13.904;100.620;2023-04-07T09:32:36;100775.16;;;33.16;60.58
23223;BME280;11780;13.904;100.620;2023-04-07T09:35:16;100769.13;;;33.14;60.40
23223;BME280;11780;13.904;100.620;2023-04-07T09:38:06;100763.25;;;33.16;60.64
23223;BME280;11780;13.904;100.620;2023-04-07T09:40:37;100759.66;;;33.15;61.00
23223;BME280;11780;13.904;100.620;2023-04-07T09:43:17;100757.22;;;33.14;60.83
23223;BME280;11780;13.904;100.620;2023-04-07T09:45:47;100765.22;;;33.15;60.71
23223;BME280;11780;13.904;100.620;2023-04-07T09:48:20;100775.94;;;33.17;60.92
23223;BME280;11780;13.904;100.620;2023-04-07T09:50:50;100780.22;;;33.14;60.83
23223;BME280;11780;13.904;100.620;2023-04-07T09:53:40;100779.06;;;33.15;60.88
23223;BME280;11780;13.904;100.620;2023-04-07T09:56:10;100777.09;;;33.16;60.53
23223;BME280;11780;13.904;100.620;2023-04-07T09:58:43;100785.88;;;33.18;60.86
23223;BME280;11780;13.904;100.620;2023-04-07T10:01:15;100790.94;;;33.16;61.16
23223;BME280;11780;13.904;100.620;2023-04-07T10:03:47;100793.38;;;33.17;60.79
23223;BME280;11780;13.904;100.620;2023-04-07T10:06:19;100794.56;;;33.16;61.07
23223;BME280;11780;13.904;100.620;2023-04-07T10:08:50;100788.19;;;33.16;60.77
23223;BME280;11780;13.904;100.620;2023-04-07T10:11:21;100787.81;;;33.17;60.27
23223;BME280;11780;13.904;100.620;2023-04-07T10:13:51;100790.28;;;33.19;60.48
23223;BME280;11780;13.904;100.620;2023-04-07T10:16:22;100792.22;;;33.18;60.26
23223;BME280;11780;13.904;100.620;2023-04-07T10:18:54;100794.69;;;33.20;60.30
23223;BME280;11780;13.904;100.620;2023-04-07T10:21:24;100805.75;;;33.20;60.02
23223;BME280;11780;13.904;100.620;2023-04-07T10:26:59;100814.41;;;33.18;60.12
23223;BME280;11780;13.904;100.620;2023-04-07T10:29:36;100827.94;;;33.20;59.95
23223;BME280;11780;13.904;100.620;2023-04-07T10:32:09;100824.69;;;33.18;60.29
23223;BME280;11780;13.904;100.620;2023-04-07T10:37:20;100840.50;;;33.17;60.28
23223;BME280;11780;13.904;100.620;2023-04-07T10:42:50;100853.56;;;33.17;60.34
23223;BME280;11780;13.904;100.620;2023-04-07T10:48:21;100864.16;;;33.15;60.30
23223;BME280;11780;13.904;100.620;2023-04-07T10:51:11;100874.56;;;33.18;59.98
23223;BME280;11780;13.904;100.620;2023-04-07T10:54:20;100867.41;;;33.17;59.93
23223;BME280;11780;13.904;100.620;2023-04-07T10:59:33;100872.94;;;33.17;59.31
23223;BME280;11780;13.904;100.620;2023-04-07T11:04:44;100875.72;;;33.17;58.48
23223;BME280;11780;13.904;100.620;2023-04-07T11:07:15;100882.41;;;33.16;58.38
23223;BME280;11780;13.904;100.620;2023-04-07T11:09:48;100878.50;;;33.17;57.59
23223;BME280;11780;13.904;100.620;2023-04-07T11:12:22;100883.25;;;33.16;57.90
23223;BME280;11780;13.904;100.620;2023-04-07T11:14:53;100885.19;;;33.16;57.93
23223;BME280;11780;13.904;100.620;2023-04-07T11:17:23;100895.47;;;33.15;57.56
23223;BME280;11780;13.904;100.620;2023-04-07T11:19:53;100900.19;;;33.15;58.23
23223;BME280;11780;13.904;100.620;2023-04-07T11:22:25;100901.34;;;33.14;57.63
23223;BME280;11780;13.904;100.620;2023-04-07T11:24:57;100905.25;;;33.13;57.79
23223;BME280;11780;13.904;100.620;2023-04-07T11:27:28;100904.44;;;33.12;57.20
23223;BME280;11780;13.904;100.620;2023-04-07T11:29:58;100907.72;;;33.14;57.23
23223;BME280;11780;13.904;100.620;2023-04-07T11:32:29;100900.06;;;33.11;56.67
23223;BME280;11780;13.904;100.620;2023-04-07T11:35:00;100903.63;;;33.12;56.82
23223;BME280;11780;13.904;100.620;2023-04-07T11:37:30;100911.13;;;33.11;56.45
23223;BME280;11780;13.904;100.620;2023-04-07T11:40:01;100913.09;;;33.10;56.29
23223;BME280;11780;13.904;100.620;2023-04-07T11:42:36;100916.69;;;33.11;56.47
23223;BME280;11780;13.904;100.620;2023-04-07T11:45:17;100918.63;;;33.10;56.43
23223;BME280;11780;13.904;100.620;2023-04-07T11:47:49;100911.47;;;33.09;56.37
23223;BME280;11780;13.904;100.620;2023-04-07T11:50:39;100925.31;;;33.09;56.27
23223;BME280;11780;13.904;100.620;2023-04-07T11:53:10;100910.19;;;33.07;56.27
23223;BME280;11780;13.904;100.620;2023-04-07T11:55:40;100919.31;;;33.07;56.14
23223;BME280;11780;13.904;100.620;2023-04-07T11:58:11;100923.25;;;33.06;56.00
23223;BME280;11780;13.904;100.620;2023-04-07T12:00:54;100934.63;;;33.05;55.90
23223;BME280;11780;13.904;100.620;2023-04-07T12:03:25;100939.69;;;33.03;56.05
23223;BME280;11780;13.904;100.620;2023-04-07T12:05:56;100944.44;;;33.02;55.79
23223;BME280;11780;13.904;100.620;2023-04-07T12:08:40;100948.00;;;33.03;55.59
23223;BME280;11780;13.904;100.620;2023-04-07T12:11:11;100953.41;;;32.99;55.44
23223;BME280;11780;13.904;100.620;2023-04-07T12:13:41;100960.94;;;32.99;55.29
23223;BME280;11780;13.904;100.620;2023-04-07T12:16:12;100956.53;;;32.98;55.08
23223;BME280;11780;13.904;100.620;2023-04-07T12:18:42;100967.94;;;32.96;54.76
23223;BME280;11780;13.904;100.620;2023-04-07T12:21:12;100971.84;;;32.95;54.58
23223;BME280;11780;13.904;100.620;2023-04-07T12:23:44;100979.03;;;32.96;54.69
23223;BME280;11780;13.904;100.620;2023-04-07T12:26:15;100979.03;;;32.96;54.22
23223;BME280;11780;13.904;100.620;2023-04-07T12:28:47;100968.28;;;32.94;54.19
23223;BME280;11780;13.904;100.620;2023-04-07T12:31:18;100977.06;;;32.97;54.26
23223;BME280;11780;13.904;100.620;2023-04-07T12:33:48;100974.16;;;32.93;54.34
23223;BME280;11780;13.904;100.620;2023-04-07T12:36:18;100970.56;;;32.92;53.92
23223;BME280;11780;13.904;100.620;2023-04-07T12:38:49;100969.78;;;32.92;54.14
23223;BME280;11780;13.904;100.620;2023-04-07T12:41:19;100983.28;;;32.93;54.18
23223;BME280;11780;13.904;100.620;2023-04-07T12:43:50;100990.78;;;32.93;54.06
23223;BME280;11780;13.904;100.620;2023-04-07T12:46:20;101002.53;;;32.90;54.10
23223;BME280;11780;13.904;100.620;2023-04-07T12:48:50;100997.00;;;32.90;54.08
23223;BME280;11780;13.904;100.620;2023-04-07T12:51:21;101005.63;;;32.88;54.26
23223;BME280;11780;13.904;100.620;2023-04-07T12:53:51;101000.91;;;32.89;54.17
23223;BME280;11780;13.904;100.620;2023-04-07T12:56:22;100998.44;;;32.87;53.91
23223;BME280;11780;13.904;100.620;2023-04-07T12:58:52;100996.50;;;32.88;53.88
23223;BME280;11780;13.904;100.620;2023-04-07T13:01:23;100997.66;;;32.87;53.72
23223;BME280;11780;13.904;100.620;2023-04-07T13:03:53;100997.66;;;32.87;53.65
23223;BME280;11780;13.904;100.620;2023-04-07T13:06:25;100999.28;;;32.88;53.75
23223;BME280;11780;13.904;100.620;2023-04-07T13:08:55;100997.66;;;32.87;53.82
23223;BME280;11780;13.904;100.620;2023-04-07T13:11:25;100996.50;;;32.88;53.61
23223;BME280;11780;13.904;100.620;2023-04-07T13:13:55;101000.75;;;32.85;53.44
23223;BME280;11780;13.904;100.620;2023-04-07T13:16:27;101003.53;;;32.85;53.57
23223;BME280;11780;13.904;100.620;2023-04-07T13:18:58;100995.22;;;32.85;53.21
23223;BME280;11780;13.904;100.620;2023-04-07T13:21:31;101001.56;;;32.86;53.16
23223;BME280;11780;13.904;100.620;2023-04-07T13:24:13;101000.41;;;32.87;53.10